Time;durP1;ratioP1;P1;durP2;ratioP2;P2;SDS_P1;SDS_P2;PMS_P1;PMS_P2;Temp;Humidity;BMP_temperature;BMP_pressure;BME280_temperature;BME280_humidity;BME280_pressure;Samples;Min_cycle;Max_cycle;Signal;HPM_P1;HPM_P2
2022/07/29 00:00:44;;;;;;;5.10;1.20;;;;;;;19.62;49.16;101414.44;3593822;39;20050;-62
2022/07/29 00:03:11;;;;;;;6.65;1.65;;;;;;;19.50;49.37;101410.09;3591676;39;20059;-63
2022/07/29 00:05:40;;;;;;;3.85;1.15;;;;;;;18.86;49.78;101298.69;3592902;39;20086;-62
2022/07/29 00:08:06;;;;;;;4.25;1.65;;;;;;;19.54;50.24;101422.47;3589698;39;20348;-62
2022/07/29 00:10:32;;;;;;;7.13;1.60;;;;;;;19.52;49.71;101416.28;3591723;39;20055;-62
2022/07/29 00:12:57;;;;;;;2.88;1.50;;;;;;;19.49;50.02;101419.28;3594522;39;20355;-62
2022/07/29 00:15:23;;;;;;;2.30;1.10;;;;;;;19.48;49.81;101414.84;3590059;39;20148;-63
2022/07/29 00:17:49;;;;;;;6.13;1.65;;;;;;;19.45;50.33;101413.25;3592420;39;20055;-62
2022/07/29 00:20:15;;;;;;;2.90;1.55;;;;;;;19.44;50.09;101410.66;3592414;39;20071;-63
2022/07/29 00:22:40;;;;;;;3.30;1.50;;;;;;;19.43;49.96;101419.84;3592712;39;20610;-62
2022/07/29 00:25:08;;;;;;;4.32;1.67;;;;;;;19.37;50.21;101409.47;3593900;39;20116;-63
2022/07/29 00:27:35;;;;;;;2.85;1.55;;;;;;;19.39;51.05;101421.13;3593478;39;20055;-62
2022/07/29 00:30:02;;;;;;;6.85;1.73;;;;;;;19.38;51.39;101422.13;3593751;39;20096;-62
2022/07/29 00:32:27;;;;;;;2.13;1.45;;;;;;;19.42;49.76;101418.97;3592658;39;20055;-63
2022/07/29 00:37:37;;;;;;;7.43;1.60;;;;;;;19.47;49.93;101427.63;3594486;39;20393;-62
2022/07/29 00:40:03;;;;;;;2.65;1.38;;;;;;;18.12;50.38;101204.44;3592828;39;20063;-62
2022/07/29 00:42:29;;;;;;;1.98;1.35;;;;;;;19.48;50.59;101442.97;3593294;39;20055;-63
2022/07/29 00:44:55;;;;;;;3.83;1.60;;;;;;;19.47;49.60;101448.53;3594095;39;20062;-63
2022/07/29 00:47:20;;;;;;;3.80;1.63;;;;;;;19.45;50.61;101466.94;3592527;39;20059;-63
2022/07/29 00:49:46;;;;;;;4.70;1.70;;;;;;;19.40;50.81;101458.28;3594029;39;20063;-63
2022/07/29 00:52:12;;;;;;;4.05;1.70;;;;;;;19.43;51.77;101461.59;3591390;39;20059;-63
2022/07/29 00:54:40;;;;;;;2.85;1.38;;;;;;;19.19;50.33;101407.41;3594442;39;20442;-63
2022/07/29 00:57:09;;;;;;;4.32;1.75;;;;;;;19.46;50.13;101430.47;3593609;39;20078;-64
2022/07/29 00:59:34;;;;;;;4.00;1.73;;;;;;;19.20;51.53;101395.50;3591384;39;20171;-63
2022/07/29 01:02:00;;;;;;;3.65;1.73;;;;;;;19.41;51.71;101428.16;3592205;39;20059;-62
2022/07/29 01:04:26;;;;;;;4.80;1.70;;;;;;;19.15;52.97;101373.22;3593522;39;20450;-61
2022/07/29 01:06:54;;;;;;;4.35;1.73;;;;;;;19.39;52.43;101402.88;3593793;39;20116;-61
2022/07/29 01:09:22;;;;;;;2.83;1.50;;;;;;;19.34;52.92;101404.28;3589729;39;20070;-61
2022/07/29 01:11:49;;;;;;;3.53;1.60;;;;;;;19.30;53.88;101386.50;3594888;39;20158;-62
2022/07/29 01:14:16;;;;;;;2.63;1.50;;;;;;;19.23;54.98;101378.88;3590885;39;20047;-61
2022/07/29 01:16:54;;;;;;;3.90;1.65;;;;;;;19.19;55.87;101369.25;3591223;39;20052;-61
2022/07/29 01:19:33;;;;;;;5.68;1.88;;;;;;;19.10;55.72;101363.75;3591535;39;20123;-62
2022/07/29 01:22:30;;;;;;;3.17;1.73;;;;;;;19.01;55.65;101369.03;3593215;39;20054;-61
2022/07/29 01:25:31;;;;;;;4.38;2.30;;;;;;;18.91;57.08;101342.75;3592643;39;20433;-62
2022/07/29 01:28:33;;;;;;;5.30;2.55;;;;;;;18.84;58.04;101320.63;3588240;39;20332;-62
2022/07/29 01:31:04;;;;;;;4.88;2.33;;;;;;;18.73;58.62;101321.56;3591634;39;20658;-61
2022/07/29 01:33:50;;;;;;;8.07;2.97;;;;;;;18.64;59.56;101319.63;3591300;39;20063;-62
2022/07/29 01:36:33;;;;;;;5.25;3.08;;;;;;;18.58;59.29;101308.41;3588353;39;20156;-62
2022/07/29 01:39:25;;;;;;;5.47;3.10;;;;;;;18.50;59.40;101320.84;3590780;39;20059;-62
2022/07/29 01:42:27;;;;;;;5.80;3.38;;;;;;;18.40;59.47;101316.34;3591574;39;20093;-62
2022/07/29 01:45:15;;;;;;;8.13;3.42;;;;;;;18.27;59.57;101322.84;3592816;39;20056;-62
2022/07/29 01:47:58;;;;;;;4.45;2.88;;;;;;;17.98;59.97;101294.53;3592396;39;20172;-62
2022/07/29 01:50:52;;;;;;;5.80;2.78;;;;;;;18.10;60.60;101332.44;3590266;39;20056;-61
2022/07/29 01:53:36;;;;;;;6.53;2.80;;;;;;;18.05;60.54;101339.31;3589304;39;20397;-61
2022/07/29 01:56:04;;;;;;;5.25;2.53;;;;;;;18.10;60.52;101348.78;3590920;39;20120;-61
2022/07/29 01:58:34;;;;;;;7.82;2.72;;;;;;;18.08;61.16;101341.75;3595157;39;20483;-62
2022/07/29 02:01:04;;;;;;;8.13;2.88;;;;;;;18.13;61.25;101336.78;3592248;39;20047;-61
2022/07/29 02:03:34;;;;;;;4.20;2.75;;;;;;;18.12;61.16;101335.06;3592032;39;21999;-61
2022/07/29 02:06:04;;;;;;;5.80;2.42;;;;;;;18.06;61.54;101327.41;3592838;39;20051;-61
2022/07/29 02:08:33;;;;;;;5.43;2.75;;;;;;;17.97;60.89;101329.06;3588689;39;20404;-61
2022/07/29 02:11:04;;;;;;;4.72;2.20;;;;;;;17.92;61.43;101319.53;3591867;39;20082;-61
2022/07/29 02:13:35;;;;;;;6.68;2.65;;;;;;;17.85;62.04;101314.63;3592644;39;20501;-61
2022/07/29 02:16:06;;;;;;;4.72;2.17;;;;;;;17.72;62.52;101297.59;3591811;39;20136;-61
2022/07/29 02:18:35;;;;;;;7.55;2.72;;;;;;;17.75;62.72;101308.22;3588861;39;20059;-61
2022/07/29 02:21:03;;;;;;;4.03;2.45;;;;;;;17.83;63.06;101322.06;3592440;39;20289;-61
2022/07/29 02:23:35;;;;;;;5.25;2.28;;;;;;;17.81;63.27;101313.16;3591221;39;20066;-61
2022/07/29 02:26:02;;;;;;;4.20;2.55;;;;;;;17.80;62.27;101316.03;3591205;39;20465;-61
2022/07/29 02:28:31;;;;;;;4.55;2.45;;;;;;;17.77;62.51;101311.72;3592442;39;20144;-62
2022/07/29 02:31:03;;;;;;;4.50;2.20;;;;;;;17.75;61.77;101320.97;3593243;39;20063;-62
2022/07/29 02:33:33;;;;;;;3.20;2.53;;;;;;;17.76;62.71;101320.84;3592801;39;20437;-62
2022/07/29 02:36:02;;;;;;;3.65;2.20;;;;;;;17.79;62.53;101315.19;3592953;39;20059;-61
2022/07/29 02:41:22;;;;;;;3.35;2.17;;;;;;;17.75;61.28;101310.94;3592419;39;20049;-64
2022/07/29 02:43:56;;;;;;;5.88;2.55;;;;;;;17.73;61.89;101312.94;3596970;39;20509;-64
2022/07/29 02:46:31;;;;;;;;;;;;;;;17.72;62.12;101310.34;3594534;39;20525;-64
2022/07/29 02:49:15;;;;;;;4.82;2.03;;;;;;;17.74;62.19;101308.34;3593151;39;20266;-64
2022/07/29 02:51:57;;;;;;;3.13;2.05;;;;;;;17.77;62.46;101311.72;3589952;39;20051;-64
2022/07/29 02:54:51;;;;;;;4.28;2.42;;;;;;;17.75;61.84;101316.38;3589487;39;20082;-64
2022/07/29 02:57:34;;;;;;;4.38;2.42;;;;;;;17.76;61.72;101312.69;3589472;39;20055;-63
2022/07/29 03:00:06;;;;;;;5.60;2.13;;;;;;;17.74;62.17;101316.53;3592328;39;20073;-63
2022/07/29 03:02:40;;;;;;;6.60;2.45;;;;;;;17.80;62.42;101316.03;3588617;39;20070;-63
2022/07/29 03:05:12;;;;;;;4.68;2.67;;;;;;;17.80;62.71;101329.63;3594068;39;20059;-63
2022/07/29 03:07:43;;;;;;;4.55;2.55;;;;;;;17.78;62.39;101316.16;3593696;39;20410;-63
2022/07/29 03:10:09;;;;;;;5.65;2.88;;;;;;;17.76;63.30;101319.94;3592383;39;20075;-63
2022/07/29 03:12:36;;;;;;;6.97;2.55;;;;;;;17.76;62.87;101317.22;3588550;39;20349;-63
2022/07/29 03:15:02;;;;;;;4.07;2.67;;;;;;;17.76;62.84;101330.81;3589446;39;20098;-64
2022/07/29 03:17:31;;;;;;;4.38;2.40;;;;;;;17.30;62.02;101243.13;3591918;39;20090;-63
2022/07/29 03:19:59;;;;;;;3.70;2.70;;;;;;;17.77;62.30;101313.56;3581576;39;20052;-64
2022/07/29 03:22:24;;;;;;;5.03;2.53;;;;;;;17.69;62.21;101306.00;3589703;39;20053;-64
2022/07/29 03:24:50;;;;;;;6.20;2.53;;;;;;;17.72;61.82;101311.19;3590592;39;20055;-64
2022/07/29 03:27:16;;;;;;;3.53;2.70;;;;;;;17.70;61.24;101315.06;3591272;39;20058;-64
2022/07/29 03:29:42;;;;;;;7.63;2.72;;;;;;;17.67;61.49;101320.75;3592384;39;20059;-63
2022/07/29 03:32:08;;;;;;;3.95;2.38;;;;;;;17.67;61.87;101318.03;3590134;39;20063;-63
2022/07/29 03:34:33;;;;;;;5.32;2.50;;;;;;;17.63;61.39;101311.97;3593986;39;20390;-63
2022/07/29 03:36:59;;;;;;;2.92;2.33;;;;;;;17.62;61.47;101316.53;3591741;39;20062;-63
2022/07/29 03:39:32;;;;;;;3.58;2.40;;;;;;;17.61;62.03;101319.41;3592409;39;20058;-62
2022/07/29 03:42:01;;;;;;;3.25;2.38;;;;;;;17.61;62.05;101317.53;3590979;39;20608;-62
2022/07/29 03:44:29;;;;;;;7.28;2.63;;;;;;;17.61;61.43;101316.69;3592139;39;20044;-62
2022/07/29 03:46:59;;;;;;;4.85;2.70;;;;;;;17.63;61.44;101320.13;3592607;39;20113;-62
2022/07/29 03:49:27;;;;;;;2.90;2.40;;;;;;;17.65;62.15;101315.44;3591582;39;20346;-62
2022/07/29 03:51:54;;;;;;;4.60;2.50;;;;;;;17.68;62.05;101315.16;3590619;39;20067;-62
2022/07/29 03:54:20;;;;;;;4.40;2.60;;;;;;;17.66;62.13;101317.16;3596906;39;20055;-62
2022/07/29 03:56:51;;;;;;;4.28;2.83;;;;;;;17.64;61.82;101311.84;3591913;39;20141;-62
2022/07/29 03:59:21;;;;;;;2.78;2.10;;;;;;;17.60;61.04;101318.53;3595417;39;20094;-62
2022/07/29 04:01:49;;;;;;;2.80;2.30;;;;;;;17.57;61.59;101309.75;3594222;39;20047;-62
2022/07/29 04:04:15;;;;;;;4.85;2.58;;;;;;;17.57;61.58;101312.47;3593428;39;20393;-62
2022/07/29 04:06:44;;;;;;;5.55;2.25;;;;;;;17.56;61.81;101313.47;3591722;39;20070;-62
2022/07/29 04:09:10;;;;;;;4.30;2.30;;;;;;;17.53;60.86;101302.84;3593124;39;20048;-62
2022/07/29 04:11:39;;;;;;;7.55;2.65;;;;;;;17.49;61.50;101295.97;3593556;39;20069;-62
2022/07/29 04:14:04;;;;;;;5.05;2.47;;;;;;;17.43;62.03;101285.59;3595320;39;20103;-62
2022/07/29 04:16:30;;;;;;;2.80;2.25;;;;;;;17.47;61.44;101297.94;3594698;39;20055;-62
2022/07/29 04:18:56;;;;;;;3.17;2.30;;;;;;;17.45;61.81;101308.94;3593287;39;20055;-62
2022/07/29 04:21:22;;;;;;;3.13;2.13;;;;;;;17.47;62.28;101303.38;3593388;39;20476;-62
2022/07/29 04:23:49;;;;;;;4.90;2.53;;;;;;;17.44;62.29;101303.63;3593877;39;20455;-62
2022/07/29 04:26:19;;;;;;;6.28;3.60;;;;;;;17.22;61.93;101264.66;3593318;39;20051;-63
2022/07/29 04:28:46;;;;;;;9.18;3.90;;;;;;;17.45;62.32;101299.94;3592420;39;20214;-62
2022/07/29 04:31:13;;;;;;;5.28;2.70;;;;;;;17.45;62.87;101299.94;3593131;39;20297;-63
2022/07/29 04:33:39;;;;;;;5.47;2.33;;;;;;;17.46;62.79;101298.94;3592745;39;20056;-62
2022/07/29 04:36:05;;;;;;;5.75;2.78;;;;;;;17.26;62.66;101271.56;3590214;39;20446;-63
2022/07/29 04:38:30;;;;;;;4.63;2.55;;;;;;;17.43;62.39;101304.63;3593750;39;20051;-62
2022/07/29 04:40:56;;;;;;;5.47;2.80;;;;;;;17.37;62.86;101317.72;3592492;39;20398;-62
2022/07/29 04:43:22;;;;;;;4.82;2.45;;;;;;;17.36;62.49;101334.16;3595706;39;20051;-63
2022/07/29 04:45:48;;;;;;;3.88;2.63;;;;;;;17.38;62.13;101338.50;3592442;39;20499;-62
2022/07/29 04:48:13;;;;;;;3.35;2.10;;;;;;;17.42;62.88;101338.25;3594559;39;20152;-63
2022/07/29 04:50:40;;;;;;;3.72;2.47;;;;;;;17.44;62.92;101333.53;3594387;39;20051;-63
2022/07/29 04:53:07;;;;;;;5.47;2.70;;;;;;;17.39;63.06;101332.06;3591694;39;20071;-62
2022/07/29 04:55:33;;;;;;;6.18;2.70;;;;;;;17.41;62.47;101345.50;3594283;39;20099;-62
2022/07/29 04:57:59;;;;;;;5.15;2.67;;;;;;;17.40;62.89;101349.22;3593484;39;20314;-63
2022/07/29 05:00:24;;;;;;;5.00;2.90;;;;;;;17.37;63.00;101349.47;3591403;39;20058;-61
2022/07/29 05:02:50;;;;;;;7.63;2.67;;;;;;;17.40;62.71;101371.81;3590750;39;20389;-62
2022/07/29 05:05:16;;;;;;;4.85;2.70;;;;;;;17.43;62.53;101369.84;3583890;39;20051;-61
2022/07/29 05:07:41;;;;;;;3.92;2.45;;;;;;;17.43;62.77;101375.28;3594376;39;20055;-61
2022/07/29 05:10:09;;;;;;;3.58;2.70;;;;;;;17.44;63.12;101377.00;3594022;39;20125;-62
2022/07/29 05:12:35;;;;;;;5.88;2.83;;;;;;;17.37;64.57;101374.78;3591983;39;20394;-62
2022/07/29 05:15:00;;;;;;;5.07;2.90;;;;;;;17.39;63.93;101359.22;3592798;39;20059;-61
2022/07/29 05:17:26;;;;;;;3.53;2.97;;;;;;;17.41;64.53;101378.13;3593471;39;20474;-61
2022/07/29 05:19:52;;;;;;;3.70;2.80;;;;;;;17.40;64.50;101371.81;3592787;39;20427;-62
2022/07/29 05:22:19;;;;;;;5.60;2.80;;;;;;;17.32;63.66;101366.16;3592622;39;20047;-62
2022/07/29 05:24:45;;;;;;;6.50;3.28;;;;;;;17.31;64.77;101372.56;3591882;39;20508;-63
2022/07/29 05:27:10;;;;;;;3.45;2.80;;;;;;;17.33;64.84;101375.19;3591719;39;20059;-64
2022/07/29 05:29:36;;;;;;;5.45;3.33;;;;;;;17.32;64.82;101368.88;3592642;39;20728;-63
2022/07/29 05:32:03;;;;;;;6.05;3.10;;;;;;;17.36;64.57;101377.66;3594060;39;20067;-63
2022/07/29 05:34:28;;;;;;;5.28;3.10;;;;;;;17.37;63.97;101374.78;3591853;39;20398;-64
2022/07/29 05:36:54;;;;;;;4.30;2.92;;;;;;;17.38;63.75;101367.53;3593628;39;20093;-63
2022/07/29 05:39:20;;;;;;;6.15;3.42;;;;;;;17.37;64.57;101366.63;3594026;39;20067;-63
2022/07/29 05:41:45;;;;;;;4.88;3.05;;;;;;;17.31;64.68;101349.97;3590969;39;20047;-63
2022/07/29 05:44:13;;;;;;;7.68;3.70;;;;;;;17.30;65.39;101359.97;3592970;39;20055;-63
2022/07/29 05:46:39;;;;;;;5.00;3.22;;;;;;;17.35;64.85;101375.94;3593224;39;20110;-64
2022/07/29 05:49:06;;;;;;;6.30;5.13;;;;;;;17.35;64.93;101376.78;3593355;39;20104;-64
2022/07/29 05:51:33;;;;;;;8.30;3.72;;;;;;;17.37;65.33;101368.50;3589960;39;20124;-64
2022/07/29 05:53:59;;;;;;;6.80;3.83;;;;;;;17.44;65.39;101360.69;3589574;39;20056;-63
2022/07/29 05:56:25;;;;;;;5.93;3.40;;;;;;;17.46;65.57;101370.47;3593109;39;20628;-63
2022/07/29 05:58:51;;;;;;;5.82;3.90;;;;;;;17.44;64.82;101371.56;3592452;39;20062;-64
2022/07/29 06:01:16;;;;;;;4.90;3.60;;;;;;;17.48;64.55;101367.63;3591440;39;20063;-63
2022/07/29 06:03:42;;;;;;;5.68;3.92;;;;;;;17.50;64.75;101365.63;3591590;39;20098;-64
2022/07/29 06:06:08;;;;;;;6.88;4.07;;;;;;;17.50;64.12;101371.06;3593448;39;20047;-63
2022/07/29 06:08:36;;;;;;;3.80;3.50;;;;;;;17.54;64.56;101372.56;3594074;39;20054;-64
2022/07/29 06:11:02;;;;;;;6.65;4.10;;;;;;;17.57;65.16;101367.75;3592009;39;20271;-63
2022/07/29 06:13:27;;;;;;;4.75;4.20;;;;;;;17.59;64.44;101354.00;3579973;39;20061;-64
2022/07/29 06:15:53;;;;;;;5.55;3.40;;;;;;;17.73;64.58;101374.59;3592588;39;20055;-64
2022/07/29 06:18:20;;;;;;;5.57;3.78;;;;;;;17.82;65.02;101369.31;3592374;39;20387;-63
2022/07/29 06:20:46;;;;;;;6.72;4.03;;;;;;;17.94;64.48;101377.41;3590882;39;20085;-64
2022/07/29 06:23:12;;;;;;;7.57;4.13;;;;;;;17.99;63.35;101367.88;3591776;39;20415;-63
2022/07/29 06:25:40;;;;;;;6.63;3.95;;;;;;;18.04;62.53;101376.50;3590738;39;20063;-64
2022/07/29 06:28:06;;;;;;;6.18;3.63;;;;;;;17.98;63.39;101360.72;3592590;39;20792;-62
2022/07/29 06:30:32;;;;;;;5.70;4.15;;;;;;;18.05;62.49;101366.50;3592397;39;20320;-64
2022/07/29 06:32:57;;;;;;;5.28;3.63;;;;;;;18.02;63.02;101372.22;3593160;39;20058;-62
2022/07/29 06:35:23;;;;;;;8.98;4.20;;;;;;;18.07;62.91;101380.81;3591448;39;20366;-63
2022/07/29 06:37:48;;;;;;;7.72;4.07;;;;;;;18.08;63.43;101377.13;3592142;39;20193;-63
2022/07/29 06:42:58;;;;;;;6.68;4.15;;;;;;;18.11;63.10;101385.03;3591580;39;20509;-63
2022/07/29 06:45:24;;;;;;;6.28;4.28;;;;;;;18.15;61.85;101372.88;3592229;39;20261;-63
2022/07/29 06:47:50;;;;;;;7.03;4.18;;;;;;;18.00;62.54;101352.41;3591668;39;20624;-61
2022/07/29 06:50:15;;;;;;;7.18;4.05;;;;;;;18.05;62.86;101377.38;3592165;39;20115;-61
2022/07/29 06:52:41;;;;;;;8.00;4.20;;;;;;;18.06;62.61;101385.41;3592039;39;20058;-61
2022/07/29 06:55:07;;;;;;;4.90;3.95;;;;;;;18.09;62.60;101392.44;3594398;39;20059;-64
2022/07/29 06:57:34;;;;;;;8.70;4.35;;;;;;;18.09;62.89;101387.88;3589953;39;20051;-64
2022/07/29 07:00:00;;;;;;;5.25;4.72;;;;;;;18.10;61.94;101394.16;3593204;39;20055;-61
2022/07/29 07:02:25;;;;;;;7.20;4.32;;;;;;;18.09;62.52;101392.44;3591731;39;20511;-61
2022/07/29 07:04:51;;;;;;;5.22;4.50;;;;;;;18.12;62.60;101392.19;3590973;39;20350;-62
2022/07/29 07:07:17;;;;;;;6.15;4.13;;;;;;;18.18;63.14;101394.41;3592544;39;20058;-62
2022/07/29 07:09:43;;;;;;;5.63;4.32;;;;;;;18.29;63.41;101391.59;3592007;39;20076;-63
2022/07/29 07:12:09;;;;;;;9.55;4.55;;;;;;;18.37;62.69;101393.69;3591593;39;20407;-62
2022/07/29 07:14:34;;;;;;;7.85;4.88;;;;;;;18.45;62.17;101401.19;3591838;39;20062;-63
2022/07/29 07:17:00;;;;;;;8.55;4.20;;;;;;;18.57;61.66;101405.56;3590763;39;20063;-62
2022/07/29 07:19:26;;;;;;;5.22;4.32;;;;;;;18.63;61.02;101406.91;3592891;39;20055;-62
2022/07/29 07:21:53;;;;;;;7.63;4.88;;;;;;;18.79;61.90;101402.75;3589803;39;20066;-62
2022/07/29 07:24:18;;;;;;;6.43;3.88;;;;;;;19.04;59.64;101397.88;3593523;39;20329;-62
2022/07/29 07:26:44;;;;;;;6.38;3.85;;;;;;;19.35;60.07;101404.19;3590356;39;20047;-62
2022/07/29 07:29:11;;;;;;;6.88;3.78;;;;;;;19.62;59.10;101400.81;3594783;39;20745;-63
2022/07/29 07:31:37;;;;;;;5.03;3.50;;;;;;;19.90;58.20;101401.03;3593807;39;20112;-62
2022/07/29 07:34:03;;;;;;;5.75;3.70;;;;;;;20.10;57.95;101401.91;3593085;39;20081;-62
2022/07/29 07:36:29;;;;;;;5.85;3.63;;;;;;;20.31;56.26;101404.53;3592703;39;20063;-62
2022/07/29 07:38:54;;;;;;;5.22;3.90;;;;;;;20.52;55.77;101399.81;3593035;39;20071;-62
2022/07/29 07:41:21;;;;;;;6.25;3.72;;;;;;;20.44;56.15;101366.84;3592685;39;20051;-62
2022/07/29 07:43:46;;;;;;;8.00;3.60;;;;;;;20.89;53.94;101411.81;3592334;39;20058;-63
2022/07/29 07:46:13;;;;;;;4.75;3.40;;;;;;;21.11;53.23;101405.97;3594887;39;20126;-63
2022/07/29 07:48:38;;;;;;;5.97;3.47;;;;;;;21.17;52.77;101402.66;3593652;39;20062;-62
2022/07/29 07:51:04;;;;;;;3.70;3.40;;;;;;;21.14;53.79;101410.28;3590230;39;20067;-63
2022/07/29 07:53:30;;;;;;;4.10;3.10;;;;;;;21.34;53.58;101411.91;3591415;39;20058;-63
2022/07/29 07:55:56;;;;;;;6.43;3.50;;;;;;;21.50;52.70;101405.84;3591371;39;20070;-63
2022/07/29 07:58:21;;;;;;;6.05;3.63;;;;;;;21.68;53.94;101408.63;3588982;39;20061;-63
2022/07/29 08:00:47;;;;;;;5.03;3.10;;;;;;;21.50;52.08;101373.91;3590257;39;20067;-63
2022/07/29 08:03:13;;;;;;;4.45;3.00;;;;;;;21.96;51.53;101413.06;3590148;39;20103;-63
2022/07/29 08:05:40;;;;;;;7.07;3.45;;;;;;;22.19;50.88;101404.41;3591781;39;20096;-63
2022/07/29 08:08:06;;;;;;;7.28;3.60;;;;;;;22.41;50.28;101409.41;3593535;39;20062;-64
2022/07/29 08:13:19;;;;;;;8.15;4.88;;;;;;;22.72;50.20;101395.28;3594765;39;20136;-64
2022/07/29 08:15:45;;;;;;;4.72;3.00;;;;;;;22.91;48.74;101417.00;3594350;39;20184;-64
2022/07/29 08:18:12;;;;;;;4.25;3.20;;;;;;;22.91;49.23;101386.81;3593528;39;20053;-63
2022/07/29 08:20:38;;;;;;;6.65;3.47;;;;;;;23.15;48.86;101410.84;3592477;39;20474;-64
2022/07/29 08:23:08;;;;;;;5.80;3.45;;;;;;;23.37;49.47;101414.03;3593853;39;20055;-64
2022/07/29 08:25:36;;;;;;;7.65;3.33;;;;;;;23.52;47.66;101414.25;3593343;39;20054;-65
2022/07/29 08:28:02;;;;;;;7.57;3.40;;;;;;;23.64;47.57;101419.28;3591283;39;20048;-64
2022/07/29 08:30:28;;;;;;;4.93;3.78;;;;;;;23.50;47.44;101399.84;3592735;39;20157;-64
2022/07/29 08:32:54;;;;;;;4.45;3.15;;;;;;;23.78;46.46;101423.31;3594278;39;20047;-66
2022/07/29 08:35:21;;;;;;;3.95;3.10;;;;;;;23.98;47.79;101428.53;3591436;39;20075;-65
2022/07/29 08:37:47;;;;;;;5.68;3.30;;;;;;;24.19;45.97;101422.56;3591269;39;20135;-65
2022/07/29 08:40:14;;;;;;;6.15;2.92;;;;;;;24.19;46.47;101428.91;3593086;39;20056;-65
2022/07/29 08:42:40;;;;;;;4.45;3.20;;;;;;;24.37;45.70;101422.41;3593047;39;20055;-65
2022/07/29 08:45:06;;;;;;;5.97;3.63;;;;;;;24.42;44.98;101420.03;3592180;39;20066;-65
2022/07/29 08:47:33;;;;;;;4.03;3.33;;;;;;;24.55;45.31;101421.25;3594293;39;20144;-65
2022/07/29 08:49:59;;;;;;;8.55;2.85;;;;;;;24.69;44.91;101425.19;3591825;39;20267;-65
2022/07/29 08:52:27;;;;;;;6.70;2.83;;;;;;;24.81;44.83;101420.19;3594011;39;20307;-65
2022/07/29 08:54:53;;;;;;;4.82;3.35;;;;;;;24.63;43.48;101390.13;3593219;39;20054;-65
2022/07/29 08:57:21;;;;;;;4.32;3.33;;;;;;;24.91;44.32;101412.63;3582852;39;20105;-65
2022/07/29 08:59:52;;;;;;;6.82;3.78;;;;;;;25.06;43.85;101423.78;3590176;39;20306;-65
2022/07/29 09:02:28;;;;;;;5.85;3.00;;;;;;;25.18;42.25;101421.50;3593372;39;20060;-65
2022/07/29 09:04:54;;;;;;;5.45;3.35;;;;;;;25.37;43.42;101423.00;3591499;39;20105;-65
2022/07/29 09:07:20;;;;;;;8.45;3.30;;;;;;;25.40;43.08;101423.50;3593619;39;20056;-65
2022/07/29 09:09:46;;;;;;;6.57;3.35;;;;;;;25.48;43.13;101420.75;3594146;39;20048;-65
2022/07/29 09:12:13;;;;;;;9.52;3.15;;;;;;;25.57;43.34;101424.31;3590850;39;20152;-65
2022/07/29 09:14:40;;;;;;;7.93;3.20;;;;;;;25.57;42.48;101424.31;3591563;39;20382;-66
2022/07/29 09:17:06;;;;;;;6.40;3.10;;;;;;;25.75;41.71;101425.94;3593204;39;20063;-65
2022/07/29 09:19:35;;;;;;;5.95;3.17;;;;;;;25.89;41.23;101428.84;3583521;39;20051;-65
2022/07/29 09:22:05;;;;;;;7.53;3.15;;;;;;;26.07;41.12;101430.44;3588590;39;20117;-65
2022/07/29 09:24:45;;;;;;;6.00;3.08;;;;;;;26.31;41.66;101421.16;3593564;39;20664;-65
2022/07/29 09:27:19;;;;;;;6.95;2.88;;;;;;;26.46;41.78;101432.25;3592406;39;20059;-65
2022/07/29 09:29:45;;;;;;;3.95;2.35;;;;;;;26.61;40.03;101436.81;3583787;39;20400;-65
2022/07/29 09:32:11;;;;;;;4.13;2.47;;;;;;;26.81;40.25;101428.03;3595247;39;20059;-65
2022/07/29 09:34:37;;;;;;;4.03;2.58;;;;;;;26.83;39.98;101425.91;3593446;39;20085;-65
2022/07/29 09:37:04;;;;;;;4.32;2.40;;;;;;;26.89;40.40;101438.09;3591337;39;20124;-65
2022/07/29 09:39:36;;;;;;;4.70;2.33;;;;;;;27.12;37.47;101433.41;3593061;39;20074;-65
2022/07/29 09:42:06;;;;;;;4.72;2.35;;;;;;;27.29;37.16;101442.38;3592768;39;20067;-65
2022/07/29 09:45:02;;;;;;;3.72;2.35;;;;;;;27.43;37.51;101433.22;3593446;39;20462;-65
2022/07/29 09:47:48;;;;;;;6.95;2.60;;;;;;;27.65;38.81;101431.41;3582664;39;20051;-65
2022/07/29 09:50:15;;;;;;;3.78;2.92;;;;;;;27.82;37.38;101431.25;3590779;39;20069;-65
2022/07/29 09:52:50;;;;;;;4.53;2.60;;;;;;;27.99;37.33;101427.19;3583213;39;20262;-65
2022/07/29 09:55:17;;;;;;;4.57;2.47;;;;;;;27.98;38.47;101412.50;3593865;39;20136;-70
2022/07/29 09:57:44;;;;;;;3.55;2.35;;;;;;;28.10;35.99;101428.56;3593698;39;20299;-66
2022/07/29 10:00:15;;;;;;;4.47;2.50;;;;;;;28.06;37.31;101425.34;3593044;39;20163;-65
2022/07/29 10:02:44;;;;;;;5.22;2.47;;;;;;;28.29;36.54;101424.31;3592186;39;20071;-65
2022/07/29 10:05:20;;;;;;;4.38;2.50;;;;;;;28.46;35.67;101421.13;3595700;39;20051;-65
2022/07/29 10:07:57;;;;;;;3.55;2.55;;;;;;;28.51;35.04;101425.19;3594235;39;20371;-65
2022/07/29 10:10:33;;;;;;;8.82;6.78;;;;;;;28.47;35.29;101421.97;3595281;39;20074;-65
2022/07/29 10:13:20;;;;;;;4.75;2.70;;;;;;;28.51;34.82;101420.50;3592066;39;20059;-66
2022/07/29 10:15:46;;;;;;;6.47;3.20;;;;;;;28.62;35.78;101424.66;3591779;39;20055;-65
2022/07/29 10:18:16;;;;;;;3.72;2.38;;;;;;;28.82;35.88;101411.84;3592551;39;20066;-65
2022/07/29 10:20:42;;;;;;;5.93;2.75;;;;;;;28.90;35.31;101419.16;3593855;39;20055;-65
2022/07/29 10:23:09;;;;;;;45.92;41.17;;;;;;;28.63;36.47;101424.47;3593131;39;20058;-64
2022/07/29 10:25:34;;;;;;;24.42;19.15;;;;;;;28.48;35.12;101425.59;3592183;39;20136;-64
2022/07/29 10:28:00;;;;;;;7.38;3.17;;;;;;;28.28;36.28;101431.75;3589381;39;20378;-64
2022/07/29 10:30:27;;;;;;;4.20;2.53;;;;;;;28.10;35.63;101425.81;3592271;39;20586;-65
2022/07/29 10:33:49;;;;;;;3.78;2.92;;;;;;;27.94;35.69;101418.59;3592258;39;20445;-65
2022/07/29 10:36:56;;;;;;;3.55;2.40;;;;;;;27.83;35.75;101422.75;3586638;39;20058;-64
2022/07/29 10:43:28;;;;;;;4.03;2.42;;;;;;;28.11;36.07;101403.50;3592326;39;20058;-64
2022/07/29 10:46:00;;;;;;;4.07;2.58;;;;;;;28.32;35.47;101413.69;3591336;39;20044;-64
2022/07/29 10:48:26;;;;;;;5.87;2.67;;;;;;;28.22;35.54;101372.56;3590241;39;20056;-64
2022/07/29 10:50:54;;;;;;;3.75;2.28;;;;;;;28.44;36.01;101406.63;3590587;39;20294;-65
2022/07/29 10:53:21;;;;;;;5.35;2.35;;;;;;;28.21;35.47;101375.53;3591030;39;20047;-65
2022/07/29 10:55:50;;;;;;;3.78;2.72;;;;;;;28.39;35.87;101406.34;3590668;39;20330;-65
2022/07/29 10:58:25;;;;;;;6.40;2.58;;;;;;;28.58;35.71;101412.31;3574322;39;20055;-64
2022/07/29 11:00:54;;;;;;;4.72;2.38;;;;;;;28.84;34.42;101406.97;3589624;39;20059;-64
2022/07/29 11:03:47;;;;;;;3.33;2.13;;;;;;;29.01;34.32;101415.00;3589940;39;20059;-64
2022/07/29 11:06:14;;;;;;;3.35;2.10;;;;;;;29.10;34.50;101416.56;3589453;39;20054;-66
2022/07/29 11:08:41;;;;;;;9.10;2.92;;;;;;;29.22;34.20;101414.94;3589052;39;20140;-65
2022/07/29 11:11:31;;;;;;;4.45;2.80;;;;;;;29.33;33.33;101416.28;3589912;39;20054;-64
2022/07/29 11:13:57;;;;;;;4.38;2.10;;;;;;;29.41;33.69;101409.72;3592986;39;20051;-63
2022/07/29 11:16:23;;;;;;;4.15;2.10;;;;;;;29.50;33.18;101411.25;3590242;39;20229;-64
2022/07/29 11:19:10;;;;;;;3.00;2.40;;;;;;;29.64;32.34;101409.44;3589331;39;20197;-64
2022/07/29 11:21:39;;;;;;;4.03;1.80;;;;;;;29.90;34.41;101405.91;3587846;39;20453;-66
2022/07/29 11:24:35;;;;;;;4.80;2.30;;;;;;;30.02;32.68;101407.00;3591176;39;20067;-64
2022/07/29 11:27:19;;;;;;;4.00;1.92;;;;;;;30.25;31.32;101406.66;3590174;39;20063;-64
2022/07/29 11:29:53;;;;;;;5.20;2.00;;;;;;;30.56;31.48;101399.66;3587841;39;20213;-64
2022/07/29 11:32:19;;;;;;;3.67;2.15;;;;;;;30.77;31.18;101405.03;3593284;39;20060;-64
2022/07/29 11:34:47;;;;;;;4.43;2.25;;;;;;;30.90;30.95;101402.22;3592452;39;20063;-64
2022/07/29 11:37:18;;;;;;;3.38;2.28;;;;;;;30.88;31.69;101395.19;3589054;39;20070;-64
2022/07/29 11:40:07;;;;;;;4.05;1.83;;;;;;;31.15;31.71;101393.22;3590286;39;20173;-64
2022/07/29 11:42:34;;;;;;;5.25;2.38;;;;;;;31.13;32.61;101396.22;3582898;39;20059;-64
2022/07/29 11:45:06;;;;;;;4.22;2.17;;;;;;;31.25;29.17;101401.97;3590660;39;20052;-64
2022/07/29 11:47:36;;;;;;;3.92;2.00;;;;;;;31.20;30.23;101402.59;3589139;39;20043;-64
2022/07/29 11:50:09;;;;;;;2.60;1.60;;;;;;;31.47;31.28;101402.56;3590487;39;20048;-64